createdAt,value
2022-10-28T03:01:53.847Z,4.38
2022-10-28T03:04:21.128Z,3.60
2022-10-28T03:06:48.214Z,4.13
2022-10-28T03:09:15.458Z,4.50
2022-10-28T03:11:42.553Z,4.10
2022-10-28T03:14:11.963Z,4.85
2022-10-28T03:16:41.711Z,3.93
2022-10-28T03:21:41.063Z,4.13
2022-10-28T03:24:08.225Z,3.92
2022-10-28T03:26:35.365Z,3.92
2022-10-28T03:29:02.559Z,4.10
2022-10-28T03:31:29.672Z,3.60
2022-10-28T03:33:56.836Z,4.43
2022-10-28T03:36:24.009Z,3.72
2022-10-28T03:38:51.120Z,3.90
2022-10-28T03:41:18.298Z,4.18
2022-10-28T03:43:45.453Z,4.40
2022-10-28T03:46:12.724Z,4.23
2022-10-28T03:48:40.033Z,4.10
2022-10-28T03:51:07.392Z,3.90
2022-10-28T03:53:34.602Z,4.30
2022-10-28T03:56:02.404Z,4.38
2022-10-28T03:58:30.275Z,4.17
2022-10-28T04:00:57.638Z,4.30
2022-10-28T04:03:25.859Z,4.53
2022-10-28T04:05:52.997Z,4.27
2022-10-28T04:08:20.809Z,4.10
2022-10-28T04:10:48.492Z,4.03
2022-10-28T04:13:16.444Z,4.17
2022-10-28T04:15:43.834Z,4.20
2022-10-28T04:18:11.003Z,4.00
2022-10-28T04:20:38.428Z,4.00
2022-10-28T04:23:05.607Z,4.28
2022-10-28T04:25:33.126Z,4.15
2022-10-28T04:28:00.281Z,3.70
2022-10-28T04:30:27.436Z,3.97
2022-10-28T04:32:54.554Z,4.25
2022-10-28T04:35:21.735Z,4.00
2022-10-28T04:37:48.937Z,3.90
2022-10-28T04:40:16.178Z,4.47
2022-10-28T04:42:43.304Z,4.33
2022-10-28T04:45:11.069Z,4.70
2022-10-28T04:47:38.260Z,3.58
2022-10-28T04:50:05.887Z,4.03
2022-10-28T04:52:33.018Z,4.00
2022-10-28T04:55:00.130Z,3.80
2022-10-28T04:57:27.375Z,3.70
2022-10-28T04:59:54.464Z,3.90
2022-10-28T05:02:23.523Z,3.80
2022-10-28T05:04:50.804Z,3.70
2022-10-28T05:07:21.197Z,4.70
2022-10-28T05:09:50.608Z,4.10
2022-10-28T05:12:17.704Z,4.10
2022-10-28T05:14:44.811Z,3.83
2022-10-28T05:17:12.044Z,3.87
2022-10-28T05:19:39.164Z,3.47
2022-10-28T05:22:06.344Z,4.18
2022-10-28T05:24:33.458Z,4.00
2022-10-28T05:27:00.884Z,5.20
2022-10-28T05:29:33.042Z,6.18
2022-10-28T05:32:00.844Z,4.97
2022-10-28T05:34:28.043Z,4.50
2022-10-28T05:36:55.228Z,4.87
2022-10-28T05:39:22.355Z,4.38
2022-10-28T05:41:49.451Z,4.60
2022-10-28T05:44:16.581Z,4.83
2022-10-28T05:46:43.675Z,4.63
2022-10-28T05:49:10.792Z,4.67
2022-10-28T05:51:37.941Z,4.60
2022-10-28T05:54:05.227Z,4.53
2022-10-28T05:56:32.321Z,4.60
2022-10-28T05:58:59.572Z,4.47
2022-10-28T06:01:26.758Z,4.63
2022-10-28T06:03:53.991Z,4.10
2022-10-28T06:06:21.217Z,5.03
2022-10-28T06:08:48.333Z,4.72
2022-10-28T06:11:13.902Z,4.90
2022-10-28T06:13:41.047Z,7.33
2022-10-28T06:16:08.215Z,6.73
2022-10-28T06:18:35.339Z,5.47
2022-10-28T06:21:03.252Z,5.43
2022-10-28T06:23:30.382Z,5.27
2022-10-28T06:25:59.439Z,6.20
2022-10-28T06:28:27.127Z,5.77
2022-10-28T06:30:59.940Z,5.97
2022-10-28T06:33:27.139Z,4.60
2022-10-28T06:35:57.763Z,4.50
2022-10-28T06:38:26.045Z,4.47
2022-10-28T06:40:53.449Z,4.27
2022-10-28T06:43:20.572Z,4.10
2022-10-28T06:45:52.189Z,4.40
2022-10-28T06:48:21.066Z,5.20
2022-10-28T06:50:48.275Z,4.63
2022-10-28T06:53:15.472Z,4.90
2022-10-28T06:55:42.606Z,5.05
2022-10-28T06:58:10.087Z,4.70
2022-10-28T07:00:37.295Z,5.13
2022-10-28T07:03:04.646Z,4.68
2022-10-28T07:05:31.977Z,5.25
2022-10-28T07:07:59.207Z,5.13
2022-10-28T07:10:26.355Z,4.63
2022-10-28T07:12:54.194Z,4.50
2022-10-28T07:15:21.663Z,4.88
2022-10-28T07:17:53.835Z,5.32
2022-10-28T07:20:21.631Z,5.63
2022-10-28T07:22:48.718Z,7.45
2022-10-28T07:25:15.961Z,9.52
2022-10-28T07:27:43.136Z,8.55
2022-10-28T07:30:11.109Z,7.70
2022-10-28T07:32:38.220Z,7.63
2022-10-28T07:35:05.832Z,8.15
2022-10-28T07:37:33.109Z,7.13
2022-10-28T07:40:00.267Z,7.43
2022-10-28T07:42:27.411Z,7.10
2022-10-28T07:44:54.604Z,7.15
2022-10-28T07:47:22.154Z,5.22
2022-10-28T07:49:49.288Z,5.10
2022-10-28T07:52:16.395Z,4.93
2022-10-28T07:54:43.518Z,5.72
2022-10-28T07:57:10.687Z,5.38
2022-10-28T07:59:37.857Z,5.43
2022-10-28T08:02:05.509Z,4.95
2022-10-28T08:04:33.208Z,5.47
2022-10-28T08:07:00.337Z,4.57
2022-10-28T08:09:27.456Z,4.88
2022-10-28T08:11:56.981Z,4.47
2022-10-28T08:14:24.169Z,4.50
2022-10-28T08:16:51.283Z,4.35
2022-10-28T08:19:18.382Z,4.47
2022-10-28T08:21:46.548Z,4.25
2022-10-28T08:24:13.784Z,3.95
2022-10-28T08:26:40.919Z,3.97
2022-10-28T08:29:10.531Z,3.85
2022-10-28T08:31:40.746Z,3.70
2022-10-28T08:34:08.090Z,3.60
2022-10-28T08:36:35.627Z,4.10
2022-10-28T08:39:03.032Z,3.85
2022-10-28T08:41:30.164Z,3.15
2022-10-28T08:44:24.509Z,2.50
2022-10-28T08:47:01.735Z,2.03
2022-10-28T08:49:32.083Z,1.77
2022-10-28T08:52:05.021Z,1.80
2022-10-28T08:54:47.371Z,1.98
2022-10-28T08:57:31.242Z,1.85
2022-10-28T08:59:59.949Z,2.00
2022-10-28T09:02:33.064Z,2.20
2022-10-28T09:05:15.334Z,2.20
2022-10-28T09:07:42.499Z,2.15
2022-10-28T09:10:13.791Z,2.03
2022-10-28T09:12:58.771Z,2.22
2022-10-28T09:15:34.890Z,2.38
2022-10-28T09:18:24.635Z,2.40
2022-10-28T09:20:56.952Z,2.25
2022-10-28T09:23:33.668Z,2.13
2022-10-28T09:26:20.596Z,2.03
2022-10-28T09:28:56.231Z,2.08
2022-10-28T09:31:37.868Z,1.85
2022-10-28T09:34:22.942Z,1.60
2022-10-28T09:37:03.393Z,1.75
2022-10-28T09:39:41.200Z,2.00
2022-10-28T09:42:15.620Z,1.70
2022-10-28T09:44:48.912Z,1.70
2022-10-28T09:47:22.629Z,1.70
2022-10-28T09:49:54.061Z,1.73
2022-10-28T09:52:31.135Z,1.80
2022-10-28T09:54:59.802Z,2.00
2022-10-28T09:57:31.494Z,1.63
2022-10-28T09:59:59.724Z,1.80
2022-10-28T10:02:28.473Z,1.40
2022-10-28T10:04:58.214Z,1.63
2022-10-28T10:07:51.924Z,2.03
2022-10-28T10:10:24.897Z,1.60
2022-10-28T10:12:55.819Z,1.75
2022-10-28T10:15:46.222Z,1.70
2022-10-28T10:18:18.752Z,1.70
2022-10-28T10:20:52.942Z,1.60
2022-10-28T10:23:27.686Z,1.50
2022-10-28T10:25:59.402Z,1.92
2022-10-28T10:28:28.306Z,1.70
2022-10-28T10:31:01.949Z,1.70
2022-10-28T10:33:34.002Z,1.60
2022-10-28T10:36:03.135Z,1.60
2022-10-28T10:38:31.851Z,2.00
2022-10-28T10:40:59.097Z,1.58
2022-10-28T10:43:36.704Z,1.70
2022-10-28T10:46:18.038Z,1.50
2022-10-28T10:48:45.474Z,1.60
2022-10-28T10:51:25.707Z,1.70
2022-10-28T10:53:57.524Z,1.73
2022-10-28T10:56:33.892Z,1.60
2022-10-28T10:59:03.865Z,1.60
2022-10-28T11:01:39.964Z,1.50
2022-10-28T11:04:14.209Z,1.83
2022-10-28T11:06:43.550Z,2.30
2022-10-28T11:09:39.792Z,1.85
2022-10-28T11:12:25.869Z,1.80
2022-10-28T11:14:59.473Z,2.10
2022-10-28T11:17:29.128Z,1.73
2022-10-28T11:19:59.377Z,1.70
2022-10-28T11:22:52.275Z,1.52
2022-10-28T11:25:35.574Z,1.48
2022-10-28T11:28:26.710Z,1.50
2022-10-28T11:30:56.859Z,1.67
2022-10-28T11:33:46.136Z,1.98
2022-10-28T11:36:31.716Z,1.80
2022-10-28T11:39:07.560Z,2.00
2022-10-28T11:42:06.464Z,1.90
2022-10-28T11:45:03.332Z,1.60
2022-10-28T11:47:54.537Z,2.10
2022-10-28T11:50:35.623Z,2.00
2022-10-28T11:53:12.627Z,1.90
2022-10-28T11:55:47.604Z,1.80
2022-10-28T11:58:23.688Z,1.70
2022-10-28T12:00:56.855Z,1.90
2022-10-28T12:03:32.610Z,1.67
2022-10-28T12:06:19.990Z,1.50
2022-10-28T12:11:51.384Z,1.63
2022-10-28T12:14:37.135Z,1.77
2022-10-28T12:17:24.506Z,1.90
2022-10-28T12:20:18.252Z,1.58
2022-10-28T12:22:51.054Z,1.80
2022-10-28T12:25:25.876Z,1.83
2022-10-28T12:27:58.383Z,1.98
2022-10-28T12:30:29.164Z,1.80
2022-10-28T12:33:13.580Z,2.17
2022-10-28T12:36:07.510Z,1.92
2022-10-28T12:38:42.846Z,2.08
2022-10-28T12:41:25.789Z,1.80
2022-10-28T12:44:14.671Z,2.05
2022-10-28T12:46:50.598Z,1.85
2022-10-28T12:49:23.612Z,2.20
2022-10-28T12:51:50.992Z,1.80
2022-10-28T12:54:20.896Z,1.58
2022-10-28T12:57:09.513Z,1.85
2022-10-28T12:59:44.522Z,1.70
2022-10-28T13:02:20.121Z,2.05
2022-10-28T13:04:47.548Z,1.90
2022-10-28T13:07:31.176Z,1.70
2022-10-28T13:10:16.096Z,2.03
2022-10-28T13:13:09.240Z,2.10
2022-10-28T13:15:51.461Z,1.98
2022-10-28T13:18:22.386Z,2.08
2022-10-28T13:21:20.481Z,2.20
2022-10-28T13:24:06.451Z,1.60
2022-10-28T13:26:35.885Z,1.70
2022-10-28T13:29:18.104Z,1.70
2022-10-28T13:31:46.589Z,2.00
2022-10-28T13:34:16.874Z,1.75
2022-10-28T13:36:46.866Z,1.92
2022-10-28T13:39:28.143Z,1.92
2022-10-28T13:42:13.159Z,2.05
2022-10-28T13:45:01.023Z,1.80
2022-10-28T13:47:35.038Z,1.80
2022-10-28T13:50:08.574Z,1.70
2022-10-28T13:52:38.560Z,2.00
2022-10-28T13:55:14.460Z,1.67
2022-10-28T13:57:47.174Z,2.10
2022-10-28T14:00:17.223Z,2.00
2022-10-28T14:02:55.279Z,1.80
2022-10-28T14:05:37.024Z,2.03
2022-10-28T14:08:07.742Z,1.90
2022-10-28T14:10:38.369Z,2.03
2022-10-28T14:13:20.549Z,1.77
2022-10-28T14:15:48.812Z,1.73
2022-10-28T14:21:06.090Z,1.98
2022-10-28T14:23:33.187Z,2.20
2022-10-28T14:26:04.539Z,2.63
2022-10-28T14:28:31.932Z,2.60
2022-10-28T14:31:07.941Z,2.28
2022-10-28T14:33:37.900Z,2.53
2022-10-28T14:36:31.435Z,1.95
2022-10-28T14:39:04.445Z,2.30
2022-10-28T14:41:37.153Z,2.10
2022-10-28T14:44:25.139Z,2.35
2022-10-28T14:47:26.005Z,2.22
2022-10-28T14:50:23.541Z,1.85
2022-10-28T14:52:52.405Z,2.50
2022-10-28T14:55:25.995Z,2.08
2022-10-28T14:57:53.692Z,2.30
2022-10-28T15:00:25.835Z,2.47
2022-10-28T15:02:54.485Z,2.20
2022-10-28T15:05:24.704Z,2.10
2022-10-28T15:07:52.192Z,2.10
2022-10-28T15:10:29.840Z,2.88
2022-10-28T15:12:58.772Z,6.40
2022-10-28T15:15:32.108Z,9.55
2022-10-28T15:18:00.164Z,12.23
2022-10-28T15:20:33.283Z,4.28
2022-10-28T15:23:18.553Z,3.20
2022-10-28T15:25:45.811Z,6.35
2022-10-28T15:28:13.842Z,5.50
2022-10-28T15:30:46.338Z,3.28
2022-10-28T15:33:37.153Z,2.50
2022-10-28T15:36:18.495Z,3.00
2022-10-28T15:39:07.315Z,2.83
2022-10-28T15:41:44.799Z,2.60
2022-10-28T15:44:38.371Z,2.72
2022-10-28T15:47:27.604Z,2.72
2022-10-28T15:50:15.623Z,2.72
2022-10-28T15:52:45.202Z,2.95
2022-10-28T15:55:18.395Z,3.05
2022-10-28T15:57:57.371Z,3.10
2022-10-28T16:00:34.699Z,2.95
2022-10-28T16:03:05.474Z,2.95
2022-10-28T16:05:32.767Z,2.50
2022-10-28T16:08:05.333Z,2.80
2022-10-28T16:10:44.492Z,2.85
2022-10-28T16:13:47.140Z,3.17
2022-10-28T16:16:22.306Z,3.13
2022-10-28T16:18:52.003Z,2.90
2022-10-28T16:21:25.303Z,3.35
2022-10-28T16:23:58.996Z,3.25
2022-10-28T16:26:27.550Z,3.15
2022-10-28T16:28:55.145Z,4.70
2022-10-28T16:31:24.570Z,5.28
2022-10-28T16:33:51.930Z,5.03
2022-10-28T16:36:19.092Z,4.13
2022-10-28T16:38:46.381Z,3.83
2022-10-28T16:41:18.639Z,3.45
2022-10-28T16:43:46.576Z,3.65
2022-10-28T16:46:14.624Z,3.75
2022-10-28T16:48:41.790Z,3.38
2022-10-28T16:51:15.188Z,3.90
2022-10-28T16:53:46.935Z,4.07
2022-10-28T16:56:16.296Z,3.63
2022-10-28T16:58:44.319Z,3.80
2022-10-28T17:01:11.972Z,4.00
2022-10-28T17:03:39.250Z,3.97
2022-10-28T17:06:06.725Z,3.65
2022-10-28T17:09:01.326Z,4.18
2022-10-28T17:11:21.051Z,3.88
2022-10-28T17:13:48.192Z,5.07
2022-10-28T17:16:15.282Z,4.60
2022-10-28T17:18:44.174Z,4.68
2022-10-28T17:21:11.317Z,4.60
2022-10-28T17:23:39.905Z,4.50
2022-10-28T17:26:07.182Z,4.75
2022-10-28T17:28:34.483Z,4.40
2022-10-28T17:31:03.640Z,4.78
2022-10-28T17:33:30.815Z,4.90
2022-10-28T17:36:02.589Z,6.30
2022-10-28T17:38:30.301Z,6.35
2022-10-28T17:40:58.197Z,7.13
2022-10-28T17:43:25.439Z,6.30
2022-10-28T17:45:52.726Z,5.78
2022-10-28T17:48:20.030Z,6.28
2022-10-28T17:50:54.980Z,5.60
2022-10-28T17:53:22.285Z,5.65
2022-10-28T17:55:59.670Z,5.53
2022-10-28T17:58:27.298Z,5.90
2022-10-28T18:01:07.575Z,5.75
2022-10-28T18:03:38.338Z,5.57
2022-10-28T18:06:08.299Z,5.80
2022-10-28T18:08:39.490Z,4.78
2022-10-28T18:11:09.126Z,4.93
2022-10-28T18:13:38.650Z,5.53
2022-10-28T18:16:10.687Z,5.55
2022-10-28T18:18:42.132Z,6.45
2022-10-28T18:21:11.471Z,5.80
2022-10-28T18:23:38.701Z,6.20
2022-10-28T18:26:10.038Z,6.97
2022-10-28T18:28:38.556Z,6.40
2022-10-28T18:31:14.211Z,5.65
2022-10-28T18:33:42.341Z,6.32
2022-10-28T18:36:18.242Z,6.65
2022-10-28T18:38:45.490Z,5.97
2022-10-28T18:41:14.667Z,5.70
2022-10-28T18:43:42.274Z,5.88
2022-10-28T18:46:09.958Z,5.47
2022-10-28T18:48:37.146Z,6.25
2022-10-28T18:51:07.429Z,5.55
2022-10-28T18:53:36.831Z,5.47
2022-10-28T18:56:07.478Z,5.55
2022-10-28T18:58:35.159Z,5.03
2022-10-28T19:01:11.628Z,5.90
2022-10-28T19:03:39.792Z,6.18
2022-10-28T19:06:10.922Z,5.15
2022-10-28T19:08:39.020Z,6.22
2022-10-28T19:11:07.279Z,6.57
2022-10-28T19:13:35.977Z,5.72
2022-10-28T19:16:03.955Z,6.40
2022-10-28T19:18:35.273Z,5.32
2022-10-28T19:21:04.277Z,6.57
2022-10-28T19:23:34.679Z,5.82
2022-10-28T19:26:03.820Z,5.47
2022-10-28T19:28:35.627Z,6.18
2022-10-28T19:31:05.201Z,5.93
2022-10-28T19:33:33.342Z,6.05
2022-10-28T19:36:05.414Z,5.72
2022-10-28T19:38:35.267Z,5.40
2022-10-28T19:41:08.344Z,5.13
2022-10-28T19:43:35.941Z,5.60
2022-10-28T19:46:17.585Z,5.40
2022-10-28T19:48:48.350Z,4.95
2022-10-28T19:51:18.030Z,5.30
2022-10-28T19:53:49.141Z,5.93
2022-10-28T19:56:19.210Z,5.60
2022-10-28T19:58:48.107Z,5.32
2022-10-28T20:01:16.687Z,5.45
2022-10-28T20:03:48.967Z,5.82
2022-10-28T20:06:18.234Z,5.90
2022-10-28T20:08:46.977Z,5.63
2022-10-28T20:11:19.989Z,5.00
2022-10-28T20:13:55.399Z,5.65
2022-10-28T20:16:24.079Z,5.75
2022-10-28T20:18:51.514Z,5.20
2022-10-28T20:21:20.622Z,5.70
2022-10-28T20:26:19.480Z,5.82
2022-10-28T20:28:46.947Z,7.10
2022-10-28T20:31:16.829Z,6.90
2022-10-28T20:33:49.125Z,6.85
2022-10-28T20:36:33.797Z,7.05
2022-10-28T20:39:08.837Z,7.78
2022-10-28T20:41:37.787Z,7.72
2022-10-28T20:44:05.944Z,8.20
2022-10-28T20:46:33.593Z,8.98
2022-10-28T20:49:00.997Z,7.57
2022-10-28T20:51:30.601Z,7.95
2022-10-28T20:53:58.008Z,7.30
2022-10-28T20:56:27.515Z,7.40
2022-10-28T20:58:55.820Z,6.90
